Henefer, UT (84033)

11:46 PM MDT on August 27, 2015 (GMT -0600)
Morgan 1426 | | Change Station
CLOSE
Current Station
Personal Weather Station
Location: Morgan, UT
Elevation: 5105 ft
Nearby Weather Stations

Elev 5105 ft 41.05 °N, 111.67 °W | Updated 1 minute ago

Clear
Clear
66.4 °F
Feels Like 66.4 °F
N
3.0
Wind Variable Wind from ENE
Gusts 9.0 mph

Today
High -- | Low -- °F
--% Chance of Precip.
Yesterday
High -- | Low -- °F
Precip. -- in
6:47 AM 8:06 PM
Waxing Gibbous, 96% visible
Pressure 30.01 in
Visibility 10.0 miles
Clouds Clear
Dew Point 39 °F
Humidity 37%
Rainfall 0.00 in
Snow Depth Not available.
UV 0 out of 12
Pollen 8.20 out of 12
Air Quality Not available.
Flu Activity Not available.
METAR KHIF 280458Z AUTO 11009KT 10SM CLR 23/07 A3019 RMK AO2 SLP163 T02280072
Pressure 30.01 in
Visibility 10.0 miles
Clouds Clear
Dew Point 39 °F
Humidity 37%
Rainfall 0.00 in
Snow Depth Not available.
UV 0 out of 12
Pollen 8.20 out of 12
Air Quality Not available.
Flu Activity Not available.
METAR KHIF 280458Z AUTO 11009KT 10SM CLR 23/07 A3019 RMK AO2 SLP163 T02280072

10-Day Weather Forecast

×

Almanac

Astronomy

Aug. 27, 2015 Rise Set
Actual Time
Civil Twilight
Nautical Twilight
Astronomical Twilight
Moon
Length of Visible Light
Length of Day
Tomorrow will be .
, % of the Moon is Illuminated

Today's Extremes

State Highs State Lows

Community

WunderPhotos

Upload Photos

1,850,341 photos uploaded!

WunderBlogs® & News

Nearby

Air Quality

  Air Quality AQ Index Pollutant
Not available.

Snow Depth

Station Depth Elevation

Earthquake Activity

City Distance Mag. Time & Date
Minimum magnitude displayed is 2.5.

Coastal Water Temperatures

Place Temperature

Stations

Nearby Weather Stations

Station Location Temp. Windchill Dew Point Humidity Wind Precip. Elev Updated Type